sensor_id;sensor_type;location;lat;lon;timestamp;pressure;altitude;pressure_sealevel;temperature;humidity
47742;BME280;33504;52.066;6.096;2024-03-08T00:00:02;101865.07;;;5.76;44.11
47742;BME280;33504;52.066;6.096;2024-03-08T00:02:29;101865.07;;;5.14;44.34
47742;BME280;33504;52.066;6.096;2024-03-08T00:04:55;101860.57;;;5.41;44.42
47742;BME280;33504;52.066;6.096;2024-03-08T00:07:22;101861.78;;;5.24;44.51
47742;BME280;33504;52.066;6.096;2024-03-08T00:09:49;101856.45;;;5.34;44.66
47742;BME280;33504;52.066;6.096;2024-03-08T00:12:16;101855.36;;;5.05;44.73
47742;BME280;33504;52.066;6.096;2024-03-08T00:14:43;101854.20;;;5.36;44.56
47742;BME280;33504;52.066;6.096;2024-03-08T00:17:10;101854.33;;;5.23;44.39
47742;BME280;33504;52.066;6.096;2024-03-08T00:19:37;101852.27;;;5.47;44.24
47742;BME280;33504;52.066;6.096;2024-03-08T00:22:05;101855.08;;;5.22;44.23
47742;BME280;33504;52.066;6.096;2024-03-08T00:24:32;101853.30;;;5.20;44.26
47742;BME280;33504;52.066;6.096;2024-03-08T00:26:59;101848.36;;;5.43;44.20
47742;BME280;33504;52.066;6.096;2024-03-08T00:29:27;101848.76;;;5.16;44.15
47742;BME280;33504;52.066;6.096;2024-03-08T00:31:54;101847.06;;;5.38;44.04
47742;BME280;33504;52.066;6.096;2024-03-08T00:34:21;101845.14;;;5.33;44.07
47742;BME280;33504;52.066;6.096;2024-03-08T00:36:48;101840.74;;;5.37;43.98
47742;BME280;33504;52.066;6.096;2024-03-08T00:39:15;101839.65;;;5.10;44.25
47742;BME280;33504;52.066;6.096;2024-03-08T00:41:42;101839.13;;;5.11;44.12
47742;BME280;33504;52.066;6.096;2024-03-08T00:44:10;101842.18;;;4.92;43.92
47742;BME280;33504;52.066;6.096;2024-03-08T00:46:37;101837.54;;;5.15;43.93
47742;BME280;33504;52.066;6.096;2024-03-08T00:49:04;101836.00;;;5.15;43.97
47742;BME280;33504;52.066;6.096;2024-03-08T00:51:32;101837.01;;;5.14;43.85
47742;BME280;33504;52.066;6.096;2024-03-08T00:53:59;101835.67;;;5.19;43.68
47742;BME280;33504;52.066;6.096;2024-03-08T00:56:26;101833.87;;;5.23;43.61
47742;BME280;33504;52.066;6.096;2024-03-08T00:58:53;101831.47;;;5.46;43.43
47742;BME280;33504;52.066;6.096;2024-03-08T01:01:21;101825.98;;;4.95;43.24
47742;BME280;33504;52.066;6.096;2024-03-08T01:03:48;101823.14;;;5.13;43.23
47742;BME280;33504;52.066;6.096;2024-03-08T01:06:16;101817.64;;;5.06;43.25
47742;BME280;33504;52.066;6.096;2024-03-08T01:08:43;101810.95;;;5.04;43.28
47742;BME280;33504;52.066;6.096;2024-03-08T01:11:13;101808.33;;;5.03;43.36
47742;BME280;33504;52.066;6.096;2024-03-08T01:13:40;101802.60;;;4.97;43.26
47742;BME280;33504;52.066;6.096;2024-03-08T01:16:07;101796.03;;;4.98;43.32
47742;BME280;33504;52.066;6.096;2024-03-08T01:18:34;101791.08;;;4.96;43.32
47742;BME280;33504;52.066;6.096;2024-03-08T01:21:01;101786.10;;;5.16;43.26
47742;BME280;33504;52.066;6.096;2024-03-08T01:23:29;101783.60;;;4.90;43.44
47742;BME280;33504;52.066;6.096;2024-03-08T01:25:56;101782.43;;;4.89;43.48
47742;BME280;33504;52.066;6.096;2024-03-08T01:28:24;101781.58;;;5.08;43.47
47742;BME280;33504;52.066;6.096;2024-03-08T01:30:50;101785.35;;;4.80;43.45
47742;BME280;33504;52.066;6.096;2024-03-08T01:33:18;101779.88;;;4.77;43.49
47742;BME280;33504;52.066;6.096;2024-03-08T01:35:45;101776.23;;;4.74;43.45
47742;BME280;33504;52.066;6.096;2024-03-08T01:38:12;101771.07;;;4.69;43.44
47742;BME280;33504;52.066;6.096;2024-03-08T01:40:39;101765.73;;;4.65;43.50
47742;BME280;33504;52.066;6.096;2024-03-08T01:43:26;101762.48;;;4.86;43.46
47742;BME280;33504;52.066;6.096;2024-03-08T01:45:55;101761.88;;;4.57;43.48
47742;BME280;33504;52.066;6.096;2024-03-08T01:48:22;101760.38;;;4.56;43.56
47742;BME280;33504;52.066;6.096;2024-03-08T01:50:50;101758.83;;;4.74;43.52
47742;BME280;33504;52.066;6.096;2024-03-08T01:53:19;101756.86;;;4.69;43.53
47742;BME280;33504;52.066;6.096;2024-03-08T01:55:48;101755.84;;;4.64;43.60
47742;BME280;33504;52.066;6.096;2024-03-08T01:58:15;101754.82;;;4.59;43.70
47742;BME280;33504;52.066;6.096;2024-03-08T02:00:44;101755.40;;;4.54;43.69
47742;BME280;33504;52.066;6.096;2024-03-08T02:03:13;101753.24;;;4.26;43.69
47742;BME280;33504;52.066;6.096;2024-03-08T02:05:41;101749.34;;;4.44;43.65
47742;BME280;33504;52.066;6.096;2024-03-08T02:08:08;101746.57;;;4.38;43.67
47742;BME280;33504;52.066;6.096;2024-03-08T02:10:35;101746.07;;;4.32;43.76
47742;BME280;33504;52.066;6.096;2024-03-08T02:13:03;101743.13;;;4.04;43.75
47742;BME280;33504;52.066;6.096;2024-03-08T02:15:50;101743.02;;;4.20;43.70
47742;BME280;33504;52.066;6.096;2024-03-08T02:18:17;101742.04;;;4.33;43.68
47742;BME280;33504;52.066;6.096;2024-03-08T02:20:45;101738.19;;;4.00;43.74
47742;BME280;33504;52.066;6.096;2024-03-08T02:23:13;101734.78;;;4.18;43.60
47742;BME280;33504;52.066;6.096;2024-03-08T02:25:40;101739.49;;;4.12;43.67
47742;BME280;33504;52.066;6.096;2024-03-08T02:28:09;101737.93;;;4.06;43.72
47742;BME280;33504;52.066;6.096;2024-03-08T02:30:37;101731.57;;;4.01;43.67
47742;BME280;33504;52.066;6.096;2024-03-08T02:33:04;101727.66;;;3.92;43.61
47742;BME280;33504;52.066;6.096;2024-03-08T02:35:32;101724.72;;;3.85;43.58
47742;BME280;33504;52.066;6.096;2024-03-08T02:37:59;101721.12;;;3.79;43.68
47742;BME280;33504;52.066;6.096;2024-03-08T02:40:26;101722.36;;;3.93;43.77
47742;BME280;33504;52.066;6.096;2024-03-08T02:42:54;101719.15;;;3.87;43.95
47742;BME280;33504;52.066;6.096;2024-03-08T02:45:21;101717.98;;;3.59;44.10
47742;BME280;33504;52.066;6.096;2024-03-08T02:47:48;101713.94;;;3.53;44.19
47742;BME280;33504;52.066;6.096;2024-03-08T02:50:16;101708.36;;;3.48;44.20
47742;BME280;33504;52.066;6.096;2024-03-08T02:52:43;101703.57;;;3.62;44.34
47742;BME280;33504;52.066;6.096;2024-03-08T02:55:10;101700.04;;;3.58;44.34
47742;BME280;33504;52.066;6.096;2024-03-08T02:57:37;101698.94;;;3.53;44.43
47742;BME280;33504;52.066;6.096;2024-03-08T03:00:05;101703.55;;;3.78;44.53
47742;BME280;33504;52.066;6.096;2024-03-08T03:02:34;101699.97;;;3.27;44.50
47742;BME280;33504;52.066;6.096;2024-03-08T03:05:00;101694.46;;;3.48;44.51
47742;BME280;33504;52.066;6.096;2024-03-08T03:07:28;101692.78;;;3.25;44.54
47742;BME280;33504;52.066;6.096;2024-03-08T03:09:55;101687.54;;;3.26;44.54
47742;BME280;33504;52.066;6.096;2024-03-08T03:12:22;101683.91;;;3.73;44.56
47742;BME280;33504;52.066;6.096;2024-03-08T03:14:50;101682.82;;;3.73;44.57
47742;BME280;33504;52.066;6.096;2024-03-08T03:17:17;101679.69;;;3.71;44.52
47742;BME280;33504;52.066;6.096;2024-03-08T03:19:45;101679.45;;;3.71;44.56
47742;BME280;33504;52.066;6.096;2024-03-08T03:22:12;101681.54;;;3.23;44.57
47742;BME280;33504;52.066;6.096;2024-03-08T03:24:39;101680.17;;;3.20;44.60
47742;BME280;33504;52.066;6.096;2024-03-08T03:27:06;101680.11;;;3.67;44.50
47742;BME280;33504;52.066;6.096;2024-03-08T03:29:33;101677.05;;;3.61;44.42
47742;BME280;33504;52.066;6.096;2024-03-08T03:32:00;101678.37;;;3.10;44.48
47742;BME280;33504;52.066;6.096;2024-03-08T03:34:27;101676.32;;;3.53;44.39
47742;BME280;33504;52.066;6.096;2024-03-08T03:36:55;101672.02;;;3.18;44.30
47742;BME280;33504;52.066;6.096;2024-03-08T03:39:22;101669.05;;;2.86;44.24
47742;BME280;33504;52.066;6.096;2024-03-08T03:41:49;101671.31;;;2.76;44.14
47742;BME280;33504;52.066;6.096;2024-03-08T03:44:16;101668.22;;;3.16;44.30
47742;BME280;33504;52.066;6.096;2024-03-08T03:46:44;101665.27;;;2.81;44.31
47742;BME280;33504;52.066;6.096;2024-03-08T03:49:11;101662.09;;;3.03;44.40
47742;BME280;33504;52.066;6.096;2024-03-08T03:51:38;101657.97;;;2.72;44.42
47742;BME280;33504;52.066;6.096;2024-03-08T03:54:05;101654.35;;;2.96;44.48
47742;BME280;33504;52.066;6.096;2024-03-08T03:56:33;101650.53;;;2.96;44.43
47742;BME280;33504;52.066;6.096;2024-03-08T03:58:59;101651.77;;;2.65;44.41
47742;BME280;33504;52.066;6.096;2024-03-08T04:01:26;101656.74;;;3.12;44.48
47742;BME280;33504;52.066;6.096;2024-03-08T04:03:54;101655.87;;;2.89;44.57
47742;BME280;33504;52.066;6.096;2024-03-08T04:06:21;101656.27;;;2.91;44.57
47742;BME280;33504;52.066;6.096;2024-03-08T04:08:48;101658.63;;;2.91;44.55
47742;BME280;33504;52.066;6.096;2024-03-08T04:11:15;101657.43;;;2.88;44.75
47742;BME280;33504;52.066;6.096;2024-03-08T04:13:42;101654.60;;;2.87;44.62
47742;BME280;33504;52.066;6.096;2024-03-08T04:16:09;101652.61;;;2.86;44.78
47742;BME280;33504;52.066;6.096;2024-03-08T04:18:37;101653.55;;;2.56;44.81
47742;BME280;33504;52.066;6.096;2024-03-08T04:21:04;101649.35;;;2.85;44.67
47742;BME280;33504;52.066;6.096;2024-03-08T04:23:31;101647.06;;;2.82;44.63
47742;BME280;33504;52.066;6.096;2024-03-08T04:25:58;101645.61;;;2.78;44.69
47742;BME280;33504;52.066;6.096;2024-03-08T04:28:25;101641.20;;;2.76;44.67
47742;BME280;33504;52.066;6.096;2024-03-08T04:30:52;101637.78;;;2.97;44.73
47742;BME280;33504;52.066;6.096;2024-03-08T04:33:20;101637.36;;;2.74;44.72
47742;BME280;33504;52.066;6.096;2024-03-08T04:35:47;101638.17;;;2.72;44.71
47742;BME280;33504;52.066;6.096;2024-03-08T04:38:15;101638.60;;;2.70;44.77
47742;BME280;33504;52.066;6.096;2024-03-08T04:40:42;101636.80;;;2.67;44.75
47742;BME280;33504;52.066;6.096;2024-03-08T04:43:09;101632.68;;;2.68;44.67
47742;BME280;33504;52.066;6.096;2024-03-08T04:45:36;101629.65;;;2.86;44.66
47742;BME280;33504;52.066;6.096;2024-03-08T04:48:04;101625.52;;;2.35;44.58
47742;BME280;33504;52.066;6.096;2024-03-08T04:50:31;101624.64;;;2.31;44.65
47742;BME280;33504;52.066;6.096;2024-03-08T04:52:58;101623.00;;;2.52;44.59
47742;BME280;33504;52.066;6.096;2024-03-08T04:55:26;101620.31;;;2.50;44.65
47742;BME280;33504;52.066;6.096;2024-03-08T04:57:53;101618.46;;;2.44;44.70
47742;BME280;33504;52.066;6.096;2024-03-08T05:00:20;101619.64;;;2.40;44.73
47742;BME280;33504;52.066;6.096;2024-03-08T05:02:47;101615.59;;;2.35;44.65
47742;BME280;33504;52.066;6.096;2024-03-08T05:05:15;101615.77;;;2.31;44.63
47742;BME280;33504;52.066;6.096;2024-03-08T05:07:43;101614.37;;;2.53;44.59
47742;BME280;33504;52.066;6.096;2024-03-08T05:10:10;101615.19;;;2.50;44.48
47742;BME280;33504;52.066;6.096;2024-03-08T05:12:37;101612.57;;;2.25;44.40
47742;BME280;33504;52.066;6.096;2024-03-08T05:15:05;101608.78;;;2.45;44.49
47742;BME280;33504;52.066;6.096;2024-03-08T05:17:32;101608.05;;;2.43;44.47
47742;BME280;33504;52.066;6.096;2024-03-08T05:19:59;101607.94;;;2.66;44.47
47742;BME280;33504;52.066;6.096;2024-03-08T05:22:26;101607.91;;;2.42;44.40
47742;BME280;33504;52.066;6.096;2024-03-08T05:24:52;101606.11;;;2.64;44.60
47742;BME280;33504;52.066;6.096;2024-03-08T05:27:19;101607.17;;;1.72;44.71
47742;BME280;33504;52.066;6.096;2024-03-08T05:29:47;101606.05;;;2.25;44.75
47742;BME280;33504;52.066;6.096;2024-03-08T05:32:14;101605.71;;;2.23;44.69
47742;BME280;33504;52.066;6.096;2024-03-08T05:34:41;101608.72;;;2.43;44.79
47742;BME280;33504;52.066;6.096;2024-03-08T05:37:09;101604.79;;;2.62;44.77
47742;BME280;33504;52.066;6.096;2024-03-08T05:39:36;101604.00;;;2.13;44.79
47742;BME280;33504;52.066;6.096;2024-03-08T05:42:03;101605.74;;;2.33;44.86
47742;BME280;33504;52.066;6.096;2024-03-08T05:44:30;101607.60;;;2.31;44.90
47742;BME280;33504;52.066;6.096;2024-03-08T05:46:57;101602.59;;;2.27;44.88
47742;BME280;33504;52.066;6.096;2024-03-08T05:49:25;101599.03;;;2.30;44.92
47742;BME280;33504;52.066;6.096;2024-03-08T05:51:52;101597.74;;;2.04;44.94
47742;BME280;33504;52.066;6.096;2024-03-08T05:54:19;101597.74;;;2.26;45.01
47742;BME280;33504;52.066;6.096;2024-03-08T05:56:46;101592.25;;;2.24;45.08
47742;BME280;33504;52.066;6.096;2024-03-08T05:59:13;101586.18;;;2.44;44.98
47742;BME280;33504;52.066;6.096;2024-03-08T06:01:40;101583.04;;;2.22;45.03
47742;BME280;33504;52.066;6.096;2024-03-08T06:04:07;101585.04;;;2.21;45.07
47742;BME280;33504;52.066;6.096;2024-03-08T06:06:39;101584.62;;;2.45;44.98
47742;BME280;33504;52.066;6.096;2024-03-08T06:09:07;101584.78;;;2.23;45.09
47742;BME280;33504;52.066;6.096;2024-03-08T06:11:34;101581.57;;;2.25;45.09
47742;BME280;33504;52.066;6.096;2024-03-08T06:14:01;101580.05;;;2.29;45.08
47742;BME280;33504;52.066;6.096;2024-03-08T06:16:28;101578.63;;;2.32;45.05
47742;BME280;33504;52.066;6.096;2024-03-08T06:18:56;101578.00;;;2.35;45.03
47742;BME280;33504;52.066;6.096;2024-03-08T06:21:23;101576.62;;;2.33;44.94
47742;BME280;33504;52.066;6.096;2024-03-08T06:23:50;101575.78;;;2.40;44.94
47742;BME280;33504;52.066;6.096;2024-03-08T06:26:17;101573.83;;;2.41;44.88
47742;BME280;33504;52.066;6.096;2024-03-08T06:28:45;101574.11;;;2.19;44.91
47742;BME280;33504;52.066;6.096;2024-03-08T06:31:12;101568.20;;;2.26;44.90
47742;BME280;33504;52.066;6.096;2024-03-08T06:33:39;101565.26;;;2.33;44.84
47742;BME280;33504;52.066;6.096;2024-03-08T06:36:08;101566.68;;;2.40;44.77
47742;BME280;33504;52.066;6.096;2024-03-08T06:38:36;101564.13;;;2.39;44.82
47742;BME280;33504;52.066;6.096;2024-03-08T06:41:03;101563.04;;;2.74;45.00
47742;BME280;33504;52.066;6.096;2024-03-08T06:43:29;101560.66;;;2.85;44.83
47742;BME280;33504;52.066;6.096;2024-03-08T06:45:56;101559.91;;;2.62;44.92
47742;BME280;33504;52.066;6.096;2024-03-08T06:48:24;101560.70;;;2.73;44.82
47742;BME280;33504;52.066;6.096;2024-03-08T06:50:51;101560.49;;;2.82;44.80
47742;BME280;33504;52.066;6.096;2024-03-08T06:53:18;101560.23;;;2.84;44.94
47742;BME280;33504;52.066;6.096;2024-03-08T06:55:45;101560.44;;;3.08;44.75
47742;BME280;33504;52.066;6.096;2024-03-08T06:58:12;101560.15;;;2.77;44.75
47742;BME280;33504;52.066;6.096;2024-03-08T07:00:39;101561.94;;;2.73;44.62
47742;BME280;33504;52.066;6.096;2024-03-08T07:03:07;101559.28;;;3.16;44.69
47742;BME280;33504;52.066;6.096;2024-03-08T07:05:34;101556.89;;;3.40;44.56
47742;BME280;33504;52.066;6.096;2024-03-08T07:08:01;101558.61;;;3.22;44.41
47742;BME280;33504;52.066;6.096;2024-03-08T07:10:28;101557.41;;;3.75;44.16
47742;BME280;33504;52.066;6.096;2024-03-08T07:12:55;101555.98;;;3.73;44.00
47742;BME280;33504;52.066;6.096;2024-03-08T07:15:23;101558.28;;;3.68;43.62
47742;BME280;33504;52.066;6.096;2024-03-08T07:17:50;101558.30;;;3.84;43.57
47742;BME280;33504;52.066;6.096;2024-03-08T07:20:17;101561.80;;;3.95;43.43
47742;BME280;33504;52.066;6.096;2024-03-08T07:22:44;101559.99;;;4.10;43.26
47742;BME280;33504;52.066;6.096;2024-03-08T07:25:11;101558.02;;;4.48;43.19
47742;BME280;33504;52.066;6.096;2024-03-08T07:27:38;101558.93;;;4.29;42.80
47742;BME280;33504;52.066;6.096;2024-03-08T07:30:06;101556.02;;;4.52;42.84
47742;BME280;33504;52.066;6.096;2024-03-08T07:32:34;101551.50;;;4.56;42.63
47742;BME280;33504;52.066;6.096;2024-03-08T07:35:01;101548.93;;;4.29;42.61
47742;BME280;33504;52.066;6.096;2024-03-08T07:37:28;101548.02;;;4.91;42.56
47742;BME280;33504;52.066;6.096;2024-03-08T07:39:56;101543.06;;;4.68;42.16
47742;BME280;33504;52.066;6.096;2024-03-08T07:42:23;101540.10;;;4.67;41.86
47742;BME280;33504;52.066;6.096;2024-03-08T07:44:51;101539.09;;;5.06;41.38
47742;BME280;33504;52.066;6.096;2024-03-08T07:47:18;101536.22;;;5.32;41.07
47742;BME280;33504;52.066;6.096;2024-03-08T07:49:46;101529.22;;;6.09;40.61
47742;BME280;33504;52.066;6.096;2024-03-08T07:52:13;101529.72;;;5.48;39.57
47742;BME280;33504;52.066;6.096;2024-03-08T07:54:40;101529.89;;;6.43;39.23
47742;BME280;33504;52.066;6.096;2024-03-08T07:57:07;101530.93;;;7.17;38.62
47742;BME280;33504;52.066;6.096;2024-03-08T07:59:35;101522.70;;;7.45;37.61
47742;BME280;33504;52.066;6.096;2024-03-08T08:02:02;101525.27;;;7.52;36.79
47742;BME280;33504;52.066;6.096;2024-03-08T08:04:29;101516.16;;;7.71;36.70
47742;BME280;33504;52.066;6.096;2024-03-08T08:06:56;101517.25;;;8.49;36.09
47742;BME280;33504;52.066;6.096;2024-03-08T08:09:23;101511.52;;;8.75;35.75
47742;BME280;33504;52.066;6.096;2024-03-08T08:11:50;101508.03;;;8.87;35.76
47742;BME280;33504;52.066;6.096;2024-03-08T08:14:17;101507.76;;;9.14;35.31
47742;BME280;33504;52.066;6.096;2024-03-08T08:16:44;101499.54;;;9.17;35.16
47742;BME280;33504;52.066;6.096;2024-03-08T08:19:11;101500.24;;;9.47;34.53
47742;BME280;33504;52.066;6.096;2024-03-08T08:21:38;101497.03;;;9.61;34.20
47742;BME280;33504;52.066;6.096;2024-03-08T08:24:06;101494.55;;;9.18;34.08
47742;BME280;33504;52.066;6.096;2024-03-08T08:26:33;101489.17;;;9.80;34.62
47742;BME280;33504;52.066;6.096;2024-03-08T08:29:00;101486.17;;;9.32;34.21
47742;BME280;33504;52.066;6.096;2024-03-08T08:31:27;101486.75;;;9.20;34.34
47742;BME280;33504;52.066;6.096;2024-03-08T08:33:54;101478.33;;;8.80;34.50
47742;BME280;33504;52.066;6.096;2024-03-08T08:36:21;101476.46;;;9.37;34.08
47742;BME280;33504;52.066;6.096;2024-03-08T08:38:48;101472.08;;;9.88;33.55
47742;BME280;33504;52.066;6.096;2024-03-08T08:41:15;101469.61;;;9.89;33.62
47742;BME280;33504;52.066;6.096;2024-03-08T08:43:42;101469.30;;;10.09;33.59
47742;BME280;33504;52.066;6.096;2024-03-08T08:46:10;101466.50;;;10.02;32.76
47742;BME280;33504;52.066;6.096;2024-03-08T08:48:37;101464.29;;;10.23;33.10
47742;BME280;33504;52.066;6.096;2024-03-08T08:51:04;101463.17;;;10.31;32.42
47742;BME280;33504;52.066;6.096;2024-03-08T08:53:31;101458.81;;;10.67;32.21
47742;BME280;33504;52.066;6.096;2024-03-08T08:55:59;101458.39;;;10.15;32.71
47742;BME280;33504;52.066;6.096;2024-03-08T08:58:26;101456.00;;;10.75;32.00
47742;BME280;33504;52.066;6.096;2024-03-08T09:00:53;101463.73;;;10.85;32.45
47742;BME280;33504;52.066;6.096;2024-03-08T09:03:20;101456.48;;;10.91;31.62
47742;BME280;33504;52.066;6.096;2024-03-08T09:05:48;101450.21;;;10.90;32.06
47742;BME280;33504;52.066;6.096;2024-03-08T09:08:14;101446.36;;;11.16;31.80
47742;BME280;33504;52.066;6.096;2024-03-08T09:10:42;101442.31;;;11.39;31.82
47742;BME280;33504;52.066;6.096;2024-03-08T09:13:09;101438.56;;;11.20;31.83
47742;BME280;33504;52.066;6.096;2024-03-08T09:15:36;101427.67;;;11.44;31.38
47742;BME280;33504;52.066;6.096;2024-03-08T09:18:04;101426.99;;;11.88;31.32
47742;BME280;33504;52.066;6.096;2024-03-08T09:20:31;101422.20;;;11.85;31.06
47742;BME280;33504;52.066;6.096;2024-03-08T09:22:58;101416.84;;;12.24;30.74
47742;BME280;33504;52.066;6.096;2024-03-08T09:25:25;101410.90;;;12.16;30.80
47742;BME280;33504;52.066;6.096;2024-03-08T09:27:52;101408.93;;;12.38;30.69
47742;BME280;33504;52.066;6.096;2024-03-08T09:30:19;101402.60;;;12.47;30.33
47742;BME280;33504;52.066;6.096;2024-03-08T09:32:47;101396.93;;;12.54;29.88
47742;BME280;33504;52.066;6.096;2024-03-08T09:35:15;101394.16;;;13.06;29.80
47742;BME280;33504;52.066;6.096;2024-03-08T09:37:42;101383.72;;;12.85;29.80
47742;BME280;33504;52.066;6.096;2024-03-08T09:40:09;101380.49;;;13.29;29.18
47742;BME280;33504;52.066;6.096;2024-03-08T09:42:37;101376.72;;;13.06;29.15
47742;BME280;33504;52.066;6.096;2024-03-08T09:45:08;101374.27;;;13.60;29.20
47742;BME280;33504;52.066;6.096;2024-03-08T09:47:37;101370.25;;;14.03;28.04
47742;BME280;33504;52.066;6.096;2024-03-08T09:50:08;101368.64;;;13.86;28.04
47742;BME280;33504;52.066;6.096;2024-03-08T09:52:36;101365.19;;;13.97;28.25
47742;BME280;33504;52.066;6.096;2024-03-08T09:55:05;101362.52;;;14.08;27.82
47742;BME280;33504;52.066;6.096;2024-03-08T09:57:33;101359.41;;;14.44;27.92
47742;BME280;33504;52.066;6.096;2024-03-08T10:00:01;101357.63;;;14.69;27.60
47742;BME280;33504;52.066;6.096;2024-03-08T10:02:28;101352.61;;;14.47;27.92
47742;BME280;33504;52.066;6.096;2024-03-08T10:04:57;101345.47;;;14.84;27.99
47742;BME280;33504;52.066;6.096;2024-03-08T10:07:24;101345.83;;;15.35;27.73
47742;BME280;33504;52.066;6.096;2024-03-08T10:09:52;101340.43;;;15.46;27.37
47742;BME280;33504;52.066;6.096;2024-03-08T10:12:19;101338.83;;;15.55;26.50
47742;BME280;33504;52.066;6.096;2024-03-08T10:14:47;101331.18;;;15.61;26.20
47742;BME280;33504;52.066;6.096;2024-03-08T10:17:14;101327.73;;;15.41;26.14
47742;BME280;33504;52.066;6.096;2024-03-08T10:19:49;101323.92;;;15.55;26.49
47742;BME280;33504;52.066;6.096;2024-03-08T10:22:17;101315.87;;;15.64;26.00
47742;BME280;33504;52.066;6.096;2024-03-08T10:24:45;101315.03;;;16.06;25.49
47742;BME280;33504;52.066;6.096;2024-03-08T10:27:13;101307.73;;;15.44;25.62
47742;BME280;33504;52.066;6.096;2024-03-08T10:29:40;101311.38;;;15.87;25.98
47742;BME280;33504;52.066;6.096;2024-03-08T10:32:07;101310.23;;;16.05;25.93
47742;BME280;33504;52.066;6.096;2024-03-08T10:34:34;101309.12;;;16.26;25.75
47742;BME280;33504;52.066;6.096;2024-03-08T10:37:04;101304.34;;;16.24;25.79
47742;BME280;33504;52.066;6.096;2024-03-08T10:39:35;101299.95;;;16.53;25.17
47742;BME280;33504;52.066;6.096;2024-03-08T10:42:04;101297.55;;;16.81;25.08
47742;BME280;33504;52.066;6.096;2024-03-08T10:44:40;101292.58;;;16.64;25.28
47742;BME280;33504;52.066;6.096;2024-03-08T10:47:17;101289.44;;;16.63;25.05
47742;BME280;33504;52.066;6.096;2024-03-08T10:49:51;101285.64;;;16.89;25.15
47742;BME280;33504;52.066;6.096;2024-03-08T10:52:22;101281.85;;;17.09;24.84
47742;BME280;33504;52.066;6.096;2024-03-08T10:54:49;101278.11;;;17.42;24.74
47742;BME280;33504;52.066;6.096;2024-03-08T10:57:18;101277.41;;;17.32;24.67
47742;BME280;33504;52.066;6.096;2024-03-08T10:59:48;101270.18;;;17.64;24.08
47742;BME280;33504;52.066;6.096;2024-03-08T11:02:16;101261.75;;;18.09;24.24
47742;BME280;33504;52.066;6.096;2024-03-08T11:04:46;101261.35;;;18.18;24.41
47742;BME280;33504;52.066;6.096;2024-03-08T11:07:13;101253.40;;;18.68;23.58
47742;BME280;33504;52.066;6.096;2024-03-08T11:09:41;101252.12;;;18.53;22.87
47742;BME280;33504;52.066;6.096;2024-03-08T11:12:25;101254.75;;;18.85;22.85
47742;BME280;33504;52.066;6.096;2024-03-08T11:14:53;101250.69;;;18.85;23.09
47742;BME280;33504;52.066;6.096;2024-03-08T11:17:22;101243.19;;;18.44;22.58
47742;BME280;33504;52.066;6.096;2024-03-08T11:19:55;101234.35;;;18.61;23.07
47742;BME280;33504;52.066;6.096;2024-03-08T11:22:25;101231.18;;;18.76;22.82
47742;BME280;33504;52.066;6.096;2024-03-08T11:24:58;101227.94;;;18.88;22.75
47742;BME280;33504;52.066;6.096;2024-03-08T11:27:29;101223.86;;;18.75;23.44
47742;BME280;33504;52.066;6.096;2024-03-08T11:30:00;101218.90;;;18.85;22.85
47742;BME280;33504;52.066;6.096;2024-03-08T11:32:29;101212.14;;;18.74;23.34
47742;BME280;33504;52.066;6.096;2024-03-08T11:34:56;101207.04;;;18.88;23.56
47742;BME280;33504;52.066;6.096;2024-03-08T11:37:28;101199.66;;;18.97;22.65
47742;BME280;33504;52.066;6.096;2024-03-08T11:39:55;101192.30;;;19.11;22.78
47742;BME280;33504;52.066;6.096;2024-03-08T11:42:22;101194.17;;;18.82;22.83
47742;BME280;33504;52.066;6.096;2024-03-08T11:44:50;101191.60;;;18.30;23.24
47742;BME280;33504;52.066;6.096;2024-03-08T11:47:18;101189.52;;;19.15;23.35
47742;BME280;33504;52.066;6.096;2024-03-08T11:49:45;101187.01;;;18.73;22.96
47742;BME280;33504;52.066;6.096;2024-03-08T11:52:13;101180.11;;;18.53;22.64
47742;BME280;33504;52.066;6.096;2024-03-08T11:54:40;101172.87;;;18.26;23.08
47742;BME280;33504;52.066;6.096;2024-03-08T11:57:08;101172.31;;;18.33;23.44
47742;BME280;33504;52.066;6.096;2024-03-08T11:59:35;101172.21;;;18.82;22.79
47742;BME280;33504;52.066;6.096;2024-03-08T12:02:04;101163.98;;;18.41;22.67
47742;BME280;33504;52.066;6.096;2024-03-08T12:04:32;101160.59;;;18.95;22.54
47742;BME280;33504;52.066;6.096;2024-03-08T12:07:00;101152.50;;;18.98;22.60
47742;BME280;33504;52.066;6.096;2024-03-08T12:09:27;101160.38;;;18.07;23.00
47742;BME280;33504;52.066;6.096;2024-03-08T12:11:54;101152.50;;;17.56;22.78
47742;BME280;33504;52.066;6.096;2024-03-08T12:14:21;101141.47;;;16.85;23.48
47742;BME280;33504;52.066;6.096;2024-03-08T12:16:50;101143.04;;;16.83;24.47
47742;BME280;33504;52.066;6.096;2024-03-08T12:19:18;101144.02;;;16.66;24.39
47742;BME280;33504;52.066;6.096;2024-03-08T12:21:45;101132.12;;;16.02;23.84
47742;BME280;33504;52.066;6.096;2024-03-08T12:24:15;101126.25;;;16.07;24.43
47742;BME280;33504;52.066;6.096;2024-03-08T12:26:47;101123.59;;;15.61;25.73
47742;BME280;33504;52.066;6.096;2024-03-08T12:29:17;101117.98;;;15.72;24.98
47742;BME280;33504;52.066;6.096;2024-03-08T12:31:45;101117.90;;;15.96;24.92
47742;BME280;33504;52.066;6.096;2024-03-08T12:34:12;101113.16;;;15.78;25.48
47742;BME280;33504;52.066;6.096;2024-03-08T12:36:45;101107.51;;;16.13;24.96
47742;BME280;33504;52.066;6.096;2024-03-08T12:39:12;101105.09;;;16.47;24.71
47742;BME280;33504;52.066;6.096;2024-03-08T12:41:39;101096.99;;;16.36;25.18
47742;BME280;33504;52.066;6.096;2024-03-08T12:44:07;101103.00;;;16.88;23.47
47742;BME280;33504;52.066;6.096;2024-03-08T12:46:39;101091.30;;;16.91;23.17
47742;BME280;33504;52.066;6.096;2024-03-08T12:49:07;101085.43;;;16.66;24.65
47742;BME280;33504;52.066;6.096;2024-03-08T12:51:35;101082.64;;;16.45;24.51
47742;BME280;33504;52.066;6.096;2024-03-08T12:54:02;101076.52;;;16.52;24.39
47742;BME280;33504;52.066;6.096;2024-03-08T12:56:30;101077.67;;;16.61;24.13
47742;BME280;33504;52.066;6.096;2024-03-08T12:58:58;101072.42;;;16.73;24.25